Time;durP1;ratioP1;P1;durP2;ratioP2;P2;SDS_P1;SDS_P2;PMS_P1;PMS_P2;Temp;Humidity;BMP_temperature;BMP_pressure;BME280_temperature;BME280_humidity;BME280_pressure;Samples;Min_cycle;Max_cycle;Signal;HPM_P1;HPM_P2
2023/12/26 00:02:12;;;;;;;5.10;2.15;;;21.50;53.60;;;;;;4992647;28;20706;-64
2023/12/26 00:04:38;;;;;;;4.78;2.17;;;21.50;53.60;;;;;;4979080;28;20035;-65
2023/12/26 00:07:04;;;;;;;4.78;2.20;;;21.50;53.70;;;;;;4978094;28;20078;-65
2023/12/26 00:09:29;;;;;;;4.72;2.28;;;21.50;53.70;;;;;;4979768;28;20066;-66
2023/12/26 00:11:55;;;;;;;4.32;1.90;;;21.50;53.60;;;;;;4983425;28;20034;-66
2023/12/26 00:14:21;;;;;;;4.82;1.80;;;21.50;53.70;;;;;;4998133;28;20061;-67
2023/12/26 00:16:46;;;;;;;5.20;2.08;;;21.40;53.60;;;;;;4998583;28;20022;-66
2023/12/26 00:19:12;;;;;;;4.72;2.10;;;21.40;53.60;;;;;;4983907;28;20090;-68
2023/12/26 00:21:39;;;;;;;4.43;2.20;;;21.40;53.60;;;;;;4984977;28;20102;-67
2023/12/26 00:24:06;;;;;;;4.20;1.95;;;21.40;53.60;;;;;;4982857;28;20039;-68
2023/12/26 00:26:31;;;;;;;5.03;2.10;;;21.40;53.60;;;;;;4983845;28;20640;-68
2023/12/26 00:28:57;;;;;;;3.47;1.88;;;21.40;53.60;;;;;;4982155;28;20074;-68
2023/12/26 00:31:22;;;;;;;4.88;2.03;;;21.40;53.60;;;;;;4997655;28;20041;-68
2023/12/26 00:33:48;;;;;;;4.38;1.90;;;21.30;53.50;;;;;;4980715;28;20026;-68
2023/12/26 00:36:18;;;;;;;4.78;1.88;;;21.30;53.60;;;;;;4983035;28;20030;-68
2023/12/26 00:38:45;;;;;;;5.18;1.75;;;21.30;53.60;;;;;;4982758;28;20424;-68
2023/12/26 00:41:14;;;;;;;4.53;1.90;;;21.30;53.50;;;;;;4982684;28;20872;-68
2023/12/26 00:43:39;;;;;;;3.85;1.70;;;21.30;53.50;;;;;;4983173;28;20097;-68
2023/12/26 00:46:06;;;;;;;4.65;1.80;;;21.30;53.50;;;;;;4984235;28;20042;-68
2023/12/26 00:48:32;;;;;;;4.97;1.90;;;21.30;53.50;;;;;;4983919;28;20023;-64
2023/12/26 00:50:58;;;;;;;3.42;1.70;;;21.30;53.50;;;;;;4985146;28;20022;-65
2023/12/26 00:53:24;;;;;;;4.38;1.80;;;21.30;53.60;;;;;;4996301;28;20023;-65
2023/12/26 00:55:50;;;;;;;4.25;1.90;;;21.30;53.50;;;;;;4999627;28;20035;-64
2023/12/26 00:58:15;;;;;;;3.75;1.80;;;21.30;53.50;;;;;;4984083;28;20406;-68
2023/12/26 01:00:41;;;;;;;4.03;1.70;;;21.30;53.60;;;;;;4982241;28;20498;-68
2023/12/26 01:03:06;;;;;;;4.93;1.90;;;21.20;53.50;;;;;;4980553;28;20026;-67
2023/12/26 01:05:32;;;;;;;3.40;1.80;;;21.20;53.50;;;;;;4981105;28;20026;-69
2023/12/26 01:07:58;;;;;;;3.80;1.60;;;21.20;53.50;;;;;;4982325;28;20370;-68
2023/12/26 01:10:23;;;;;;;4.38;1.65;;;21.20;53.50;;;;;;4983034;28;20033;-68
2023/12/26 01:12:49;;;;;;;3.80;1.80;;;21.20;53.50;;;;;;4982275;28;20033;-68
2023/12/26 01:15:15;;;;;;;3.83;1.70;;;21.20;53.50;;;;;;4996733;28;20121;-68
2023/12/26 01:17:40;;;;;;;3.85;1.90;;;21.20;53.50;;;;;;4979844;28;20033;-68
2023/12/26 01:20:06;;;;;;;3.80;1.67;;;21.20;53.50;;;;;;4981170;28;20111;-68
2023/12/26 01:22:32;;;;;;;4.25;1.90;;;21.20;53.50;;;;;;4996329;28;21536;-67
2023/12/26 01:24:58;;;;;;;3.92;1.80;;;21.10;53.50;;;;;;4980813;28;20027;-68
2023/12/26 01:27:24;;;;;;;4.13;1.55;;;21.20;53.50;;;;;;4982201;28;20033;-68
2023/12/26 01:29:50;;;;;;;4.85;1.95;;;21.10;53.50;;;;;;4982588;28;20490;-68
2023/12/26 01:32:16;;;;;;;4.35;1.77;;;21.10;53.50;;;;;;4981789;28;20031;-68
2023/12/26 01:34:41;;;;;;;4.65;2.15;;;21.10;53.50;;;;;;4994778;28;20677;-68
2023/12/26 01:37:07;;;;;;;3.50;1.80;;;21.20;53.50;;;;;;4980767;28;20033;-68
2023/12/26 01:39:33;;;;;;;4.25;1.80;;;21.10;53.50;;;;;;4995907;28;20030;-65
2023/12/26 01:41:58;;;;;;;3.42;1.67;;;21.10;53.50;;;;;;4981938;28;20073;-66
2023/12/26 01:44:24;;;;;;;3.53;1.60;;;21.10;53.50;;;;;;4981199;28;20399;-65
2023/12/26 01:46:50;;;;;;;3.85;1.70;;;21.10;53.50;;;;;;4983945;28;20038;-65
2023/12/26 01:49:16;;;;;;;3.75;1.70;;;21.10;53.60;;;;;;4982819;28;20450;-66
2023/12/26 01:51:42;;;;;;;3.63;1.60;;;21.00;53.50;;;;;;4982236;28;20518;-65
2023/12/26 01:54:09;;;;;;;4.43;1.67;;;21.00;53.60;;;;;;4980864;28;20096;-65
2023/12/26 01:56:35;;;;;;;4.47;1.70;;;21.00;53.60;;;;;;4981565;28;20026;-66
2023/12/26 01:59:02;;;;;;;4.00;1.80;;;21.00;53.60;;;;;;4979879;28;20034;-66
2023/12/26 02:01:29;;;;;;;4.10;1.88;;;21.00;53.60;;;;;;4981331;28;20117;-67
2023/12/26 02:03:55;;;;;;;4.20;1.70;;;21.00;53.60;;;;;;4981108;28;20034;-66
2023/12/26 02:06:21;;;;;;;3.35;1.60;;;21.00;53.60;;;;;;4980585;28;20527;-66
2023/12/26 02:08:49;;;;;;;4.47;1.90;;;21.00;53.60;;;;;;4981324;28;20031;-66
2023/12/26 02:11:14;;;;;;;3.95;1.60;;;21.00;53.60;;;;;;4982162;28;20426;-66
2023/12/26 02:13:40;;;;;;;3.95;1.70;;;21.00;53.60;;;;;;4994714;28;20035;-66
2023/12/26 02:16:12;;;;;;;3.10;1.50;;;21.00;53.60;;;;;;4982146;28;20172;-67
2023/12/26 02:18:38;;;;;;;3.85;1.50;;;20.90;53.60;;;;;;4982493;28;20419;-66
2023/12/26 02:21:04;;;;;;;3.50;1.80;;;20.90;53.60;;;;;;4981805;28;20030;-66
2023/12/26 02:23:33;;;;;;;4.45;1.60;;;20.90;53.60;;;;;;4981739;28;20372;-66
2023/12/26 02:26:01;;;;;;;4.65;2.00;;;20.90;53.60;;;;;;4983081;28;20122;-66
2023/12/26 02:28:27;;;;;;;3.65;1.63;;;20.90;53.60;;;;;;4980060;28;20463;-66
2023/12/26 02:30:53;;;;;;;3.60;1.60;;;20.90;54.10;;;;;;4980320;28;20172;-66
2023/12/26 02:33:19;;;;;;;3.13;1.60;;;20.90;54.10;;;;;;4980111;28;20521;-66
2023/12/26 02:35:45;;;;;;;3.17;1.58;;;20.90;54.10;;;;;;4979911;28;20039;-66
2023/12/26 02:38:11;;;;;;;2.70;1.45;;;20.90;53.60;;;;;;4980019;28;20037;-66
2023/12/26 02:40:36;;;;;;;3.25;1.60;;;20.80;53.60;;;;;;4980894;28;20054;-66
2023/12/26 02:43:02;;;;;;;2.67;1.48;;;20.90;53.60;;;;;;4981052;28;20109;-66
2023/12/26 02:45:28;;;;;;;3.17;1.42;;;20.90;53.70;;;;;;4982386;28;20027;-66
2023/12/26 02:47:53;;;;;;;3.13;1.50;;;20.80;53.60;;;;;;4980620;28;20121;-66
2023/12/26 02:50:19;;;;;;;2.33;1.20;;;20.80;53.60;;;;;;4980195;28;20486;-66
2023/12/26 02:52:45;;;;;;;2.85;1.55;;;20.80;53.60;;;;;;4980853;28;20027;-66
2023/12/26 02:55:11;;;;;;;3.10;1.50;;;20.80;53.60;;;;;;4979522;28;20043;-67
2023/12/26 02:57:37;;;;;;;3.33;1.40;;;20.70;53.60;;;;;;4981044;28;20026;-66
2023/12/26 03:00:05;;;;;;;2.75;1.35;;;20.80;53.70;;;;;;4980782;28;20479;-65
2023/12/26 03:02:31;;;;;;;3.47;1.50;;;20.80;53.70;;;;;;4979046;28;20023;-66
2023/12/26 03:04:57;;;;;;;3.28;1.20;;;20.70;53.60;;;;;;4979592;28;20029;-66
2023/12/26 03:07:22;;;;;;;3.33;1.50;;;20.80;53.70;;;;;;4979306;28;20478;-66
2023/12/26 03:09:48;;;;;;;3.17;1.40;;;20.80;53.70;;;;;;4978562;28;20050;-67
2023/12/26 03:12:13;;;;;;;2.70;1.30;;;20.80;54.20;;;;;;4981175;28;20447;-68
2023/12/26 03:14:39;;;;;;;3.38;1.52;;;20.70;53.60;;;;;;4979576;28;20490;-68
2023/12/26 03:17:05;;;;;;;3.05;1.35;;;20.70;54.20;;;;;;4981338;28;20115;-68
2023/12/26 03:19:30;;;;;;;3.53;1.30;;;20.70;53.70;;;;;;4978749;28;20459;-66
2023/12/26 03:21:56;;;;;;;2.03;1.10;;;20.70;53.70;;;;;;4979013;28;20023;-65
2023/12/26 03:24:22;;;;;;;2.90;1.40;;;20.70;53.70;;;;;;4993597;28;20035;-65
2023/12/26 03:26:47;;;;;;;3.03;1.30;;;20.70;53.70;;;;;;4978864;28;20066;-66
2023/12/26 03:29:13;;;;;;;3.13;1.30;;;20.70;53.70;;;;;;4980535;28;20034;-66
2023/12/26 03:31:45;;;;;;;2.80;1.50;;;20.70;53.80;;;;;;4977485;28;20505;-65
2023/12/26 03:34:11;;;;;;;2.50;1.27;;;20.60;53.70;;;;;;4982394;28;20039;-66
2023/12/26 03:36:48;;;;;;;3.17;1.48;;;20.60;53.70;;;;;;4979636;28;20027;-65
2023/12/26 03:39:14;;;;;;;2.30;1.05;;;20.70;53.80;;;;;;4978786;28;20104;-65
2023/12/26 03:41:40;;;;;;;3.38;1.10;;;20.60;53.70;;;;;;4979173;28;20035;-66
2023/12/26 03:44:06;;;;;;;2.72;1.20;;;20.60;53.70;;;;;;4978948;28;20049;-65
2023/12/26 03:46:31;;;;;;;2.72;1.50;;;20.60;53.70;;;;;;4980115;28;20056;-65
2023/12/26 03:48:57;;;;;;;3.78;1.30;;;20.60;53.70;;;;;;4976257;28;20603;-65
2023/12/26 03:51:22;;;;;;;3.92;1.35;;;20.60;53.80;;;;;;4981345;28;20535;-65
2023/12/26 03:53:48;;;;;;;2.92;1.30;;;20.60;53.80;;;;;;4979304;28;20445;-65
2023/12/26 03:56:14;;;;;;;2.50;1.27;;;20.60;53.80;;;;;;4979213;28;20070;-66
2023/12/26 03:58:39;;;;;;;3.13;1.30;;;20.60;53.80;;;;;;4978796;28;20089;-65
2023/12/26 04:01:05;;;;;;;2.83;1.38;;;20.60;53.80;;;;;;4979918;28;20022;-66
2023/12/26 04:03:32;;;;;;;2.63;1.23;;;20.60;53.80;;;;;;4980643;28;20062;-66
2023/12/26 04:05:57;;;;;;;2.22;1.08;;;20.60;53.80;;;;;;4980903;28;20419;-65
2023/12/26 04:08:23;;;;;;;2.45;1.10;;;20.50;53.80;;;;;;4983541;28;20105;-66
2023/12/26 04:10:48;;;;;;;2.40;1.25;;;20.50;53.80;;;;;;4980093;28;20073;-65
2023/12/26 04:13:14;;;;;;;2.22;1.27;;;20.50;53.80;;;;;;4979629;28;20023;-65
2023/12/26 04:15:40;;;;;;;2.53;1.10;;;20.50;53.80;;;;;;4980821;28;20063;-64
2023/12/26 04:18:05;;;;;;;2.45;1.17;;;20.50;53.80;;;;;;4980026;28;20113;-64
2023/12/26 04:20:31;;;;;;;2.20;1.25;;;20.50;53.80;;;;;;4978272;28;20022;-66
2023/12/26 04:22:56;;;;;;;2.65;1.30;;;20.50;53.80;;;;;;4980548;28;20022;-65
2023/12/26 04:25:22;;;;;;;2.40;1.15;;;20.50;53.80;;;;;;4978279;28;20034;-65
2023/12/26 04:27:48;;;;;;;3.00;1.30;;;20.50;53.70;;;;;;4979889;28;20037;-65
2023/12/26 04:30:15;;;;;;;2.13;1.00;;;20.50;53.70;;;;;;4980125;28;20368;-65
2023/12/26 04:32:40;;;;;;;1.98;1.10;;;20.40;53.70;;;;;;4977235;28;20030;-66
2023/12/26 04:35:06;;;;;;;2.30;1.20;;;20.40;53.70;;;;;;4978163;28;20027;-66
2023/12/26 04:37:32;;;;;;;2.50;1.10;;;20.40;53.70;;;;;;4978985;28;20395;-65
2023/12/26 04:39:57;;;;;;;2.38;1.33;;;20.40;53.70;;;;;;4979447;28;20035;-65
2023/12/26 04:42:23;;;;;;;2.60;1.02;;;20.40;53.70;;;;;;4994287;28;20740;-65
2023/12/26 04:44:49;;;;;;;1.80;1.00;;;20.40;53.70;;;;;;4980077;28;20403;-65
2023/12/26 04:47:14;;;;;;;2.17;1.00;;;20.40;53.80;;;;;;4980863;28;20109;-66
2023/12/26 04:49:40;;;;;;;1.92;1.00;;;20.40;53.80;;;;;;4979210;28;20086;-65
2023/12/26 04:52:05;;;;;;;1.90;1.05;;;20.40;53.80;;;;;;4977807;28;20053;-66
2023/12/26 04:54:31;;;;;;;2.17;1.00;;;20.40;53.80;;;;;;4977985;28;20043;-66
2023/12/26 04:56:57;;;;;;;2.40;1.20;;;20.40;53.80;;;;;;4983899;28;20064;-65
2023/12/26 04:59:22;;;;;;;1.98;0.90;;;20.40;53.80;;;;;;4981279;28;20117;-65
2023/12/26 05:01:48;;;;;;;1.83;1.00;;;20.30;53.80;;;;;;4983262;28;20035;-66
2023/12/26 05:04:13;;;;;;;2.20;1.00;;;20.30;53.80;;;;;;4982671;28;20023;-66
2023/12/26 05:06:39;;;;;;;1.92;0.90;;;20.30;53.80;;;;;;4981937;28;20034;-65
2023/12/26 05:09:05;;;;;;;2.28;1.00;;;20.30;53.90;;;;;;4982298;28;20027;-66
2023/12/26 05:11:30;;;;;;;1.90;0.90;;;20.30;53.90;;;;;;4982800;28;20023;-65
2023/12/26 05:13:56;;;;;;;1.98;1.00;;;20.30;53.90;;;;;;4982089;28;20038;-65
2023/12/26 05:16:21;;;;;;;1.42;0.90;;;20.30;53.90;;;;;;4983304;28;20030;-66
2023/12/26 05:18:47;;;;;;;1.88;0.93;;;20.30;53.90;;;;;;4982432;28;20038;-66
2023/12/26 05:21:19;;;;;;;1.60;0.90;;;20.30;53.90;;;;;;4982953;28;20034;-67
2023/12/26 05:23:45;;;;;;;1.48;0.90;;;20.30;53.90;;;;;;4985019;28;20030;-66
2023/12/26 05:26:11;;;;;;;1.98;0.90;;;20.30;53.90;;;;;;4979964;28;20073;-66
2023/12/26 05:28:37;;;;;;;1.83;0.90;;;20.30;54.00;;;;;;4979747;28;20118;-66
2023/12/26 05:31:04;;;;;;;2.40;1.20;;;20.30;54.00;;;;;;4983259;28;20023;-66
2023/12/26 05:33:30;;;;;;;2.28;0.90;;;20.20;54.00;;;;;;4982474;28;20014;-66
2023/12/26 05:35:55;;;;;;;1.85;0.90;;;20.30;54.00;;;;;;4983710;28;20039;-67
2023/12/26 05:38:21;;;;;;;1.85;1.10;;;20.20;54.00;;;;;;4996755;28;20435;-66
2023/12/26 05:40:47;;;;;;;1.65;0.82;;;20.30;54.10;;;;;;4981172;28;20117;-65
2023/12/26 05:43:12;;;;;;;2.08;1.20;;;20.20;54.10;;;;;;4984834;28;20101;-64
2023/12/26 05:45:38;;;;;;;1.75;1.00;;;20.30;54.10;;;;;;4983591;28;20486;-64
2023/12/26 05:48:05;;;;;;;1.67;0.90;;;20.20;54.10;;;;;;4998035;28;20133;-66
2023/12/26 05:50:31;;;;;;;1.73;0.90;;;20.20;54.10;;;;;;4981106;28;20391;-66
2023/12/26 05:52:57;;;;;;;1.63;0.82;;;20.20;54.10;;;;;;4995945;28;20049;-65
2023/12/26 05:55:22;;;;;;;1.38;0.88;;;20.20;54.10;;;;;;4980712;28;20038;-65
2023/12/26 05:57:48;;;;;;;1.83;1.00;;;20.20;54.10;;;;;;4981770;28;20121;-64
2023/12/26 06:00:14;;;;;;;1.90;1.15;;;20.20;54.10;;;;;;4982791;28;20019;-66
2023/12/26 06:02:40;;;;;;;1.55;0.90;;;20.20;54.20;;;;;;4980467;28;20391;-65
2023/12/26 06:05:06;;;;;;;1.35;0.85;;;20.20;54.20;;;;;;4982362;28;20041;-65
2023/12/26 06:07:32;;;;;;;1.60;0.80;;;20.20;54.20;;;;;;4980097;28;20022;-65
2023/12/26 06:09:58;;;;;;;1.05;0.65;;;20.20;54.20;;;;;;4982386;28;20390;-64
2023/12/26 06:12:23;;;;;;;2.00;0.95;;;20.10;54.20;;;;;;4981335;28;20063;-65
2023/12/26 06:14:49;;;;;;;1.90;1.10;;;20.20;54.30;;;;;;4982151;28;20444;-64
2023/12/26 06:17:14;;;;;;;1.40;0.70;;;20.20;54.30;;;;;;4982251;28;20031;-65
2023/12/26 06:19:40;;;;;;;1.33;0.90;;;20.10;54.30;;;;;;4979693;28;20506;-64
2023/12/26 06:22:05;;;;;;;1.90;1.00;;;20.10;54.30;;;;;;4982169;28;20031;-65
2023/12/26 06:24:31;;;;;;;1.67;0.90;;;20.10;54.30;;;;;;4980563;28;20039;-65
2023/12/26 06:26:57;;;;;;;1.95;1.08;;;20.10;54.30;;;;;;4981535;28;20046;-65
2023/12/26 06:29:23;;;;;;;1.33;0.80;;;20.10;54.30;;;;;;4981571;28;20114;-64
2023/12/26 06:31:48;;;;;;;2.15;0.90;;;20.10;54.30;;;;;;4981074;28;20042;-64
2023/12/26 06:34:14;;;;;;;1.60;0.90;;;20.10;54.30;;;;;;4980498;28;20034;-64
2023/12/26 06:36:39;;;;;;;1.77;0.90;;;20.10;54.30;;;;;;4980985;28;20041;-65
2023/12/26 06:39:05;;;;;;;1.40;0.70;;;20.10;54.30;;;;;;4981276;28;20054;-66
2023/12/26 06:41:31;;;;;;;1.63;0.70;;;20.10;54.30;;;;;;4979929;28;20641;-66
2023/12/26 06:43:57;;;;;;;1.13;0.70;;;20.10;54.30;;;;;;4980190;28;20038;-66
2023/12/26 06:46:23;;;;;;;1.88;0.80;;;20.10;54.30;;;;;;4980530;28;20030;-66
2023/12/26 06:48:48;;;;;;;1.55;0.90;;;20.10;54.30;;;;;;4981851;28;20027;-66
2023/12/26 06:51:17;;;;;;;1.48;0.80;;;20.10;54.30;;;;;;4981185;28;20023;-66
2023/12/26 06:53:43;;;;;;;1.92;1.00;;;20.10;54.30;;;;;;4979726;28;20053;-65
2023/12/26 06:56:09;;;;;;;1.48;0.80;;;20.10;54.30;;;;;;4979541;28;20026;-66
2023/12/26 06:58:35;;;;;;;1.65;0.95;;;20.10;54.30;;;;;;4979387;28;20057;-65
2023/12/26 07:01:01;;;;;;;1.60;0.80;;;20.10;54.30;;;;;;4980656;28;20019;-65
2023/12/26 07:03:27;;;;;;;1.10;0.80;;;20.10;54.30;;;;;;4979138;28;20483;-66
2023/12/26 07:05:53;;;;;;;1.83;0.93;;;20.10;54.30;;;;;;4982108;28;20110;-66
2023/12/26 07:08:19;;;;;;;1.63;0.90;;;20.10;54.30;;;;;;4981491;28;20026;-66
2023/12/26 07:10:45;;;;;;;1.30;0.80;;;20.10;54.30;;;;;;4979125;28;20375;-66
2023/12/26 07:13:11;;;;;;;1.42;0.85;;;20.10;54.30;;;;;;4980887;28;20521;-66
2023/12/26 07:15:36;;;;;;;1.30;0.80;;;20.10;54.30;;;;;;4979437;28;20125;-66
2023/12/26 07:18:02;;;;;;;1.83;0.88;;;20.00;54.20;;;;;;4979020;28;20026;-66
2023/12/26 07:20:27;;;;;;;1.17;0.70;;;20.00;54.30;;;;;;4980661;28;20034;-66
2023/12/26 07:22:53;;;;;;;1.20;0.70;;;20.00;54.20;;;;;;4980390;28;20027;-66
2023/12/26 07:25:19;;;;;;;1.80;0.90;;;20.00;54.30;;;;;;4979757;28;20521;-66
2023/12/26 07:27:44;;;;;;;1.40;0.80;;;20.10;54.30;;;;;;4979269;28;20101;-66
2023/12/26 07:30:10;;;;;;;1.42;0.75;;;20.00;54.30;;;;;;4978978;28;20062;-66
2023/12/26 07:32:36;;;;;;;1.83;0.80;;;20.00;54.20;;;;;;4981371;28;20061;-66
2023/12/26 07:35:02;;;;;;;1.25;0.80;;;20.00;54.20;;;;;;4979475;28;20093;-66
2023/12/26 07:37:27;;;;;;;1.77;1.00;;;20.00;54.30;;;;;;4980689;28;20031;-66
2023/12/26 07:39:53;;;;;;;2.10;0.90;;;20.00;54.30;;;;;;4978812;28;20573;-66
2023/12/26 07:42:22;;;;;;;1.80;0.82;;;20.00;54.30;;;;;;4979865;28;20030;-66
2023/12/26 07:44:47;;;;;;;2.70;1.23;;;20.00;54.30;;;;;;4979689;28;20491;-66
2023/12/26 07:47:15;;;;;;;1.58;0.90;;;20.00;54.30;;;;;;4979229;28;20130;-65
2023/12/26 07:49:40;;;;;;;1.92;0.90;;;20.00;54.30;;;;;;4994960;28;20062;-67
2023/12/26 07:52:06;;;;;;;1.42;0.90;;;20.00;54.30;;;;;;4979079;28;20057;-67
2023/12/26 07:54:32;;;;;;;2.33;0.80;;;20.00;54.30;;;;;;4979394;28;20526;-67
2023/12/26 07:56:57;;;;;;;1.65;0.85;;;20.00;54.30;;;;;;4980183;28;20054;-67
2023/12/26 07:59:23;;;;;;;1.35;0.70;;;20.00;54.30;;;;;;4979935;28;20596;-65
2023/12/26 08:01:48;;;;;;;1.92;0.90;;;20.00;54.30;;;;;;4980150;28;20031;-66
2023/12/26 08:04:14;;;;;;;2.08;0.98;;;20.00;54.30;;;;;;4977571;28;20037;-65
2023/12/26 08:06:40;;;;;;;1.70;0.90;;;20.00;54.40;;;;;;4979147;28;20030;-65
2023/12/26 08:09:06;;;;;;;1.48;0.90;;;20.00;54.30;;;;;;4979920;28;20099;-65
2023/12/26 08:11:31;;;;;;;1.15;0.70;;;20.00;54.30;;;;;;4993517;28;20173;-67
2023/12/26 08:13:57;;;;;;;1.48;0.80;;;20.00;54.40;;;;;;4997576;28;20039;-68
2023/12/26 08:16:22;;;;;;;1.67;0.80;;;20.00;54.40;;;;;;4981061;28;20795;-67
2023/12/26 08:18:48;;;;;;;1.67;0.80;;;19.90;54.30;;;;;;4979850;28;20031;-67
2023/12/26 08:21:14;;;;;;;1.50;0.80;;;19.90;54.30;;;;;;4980971;28;20065;-67
2023/12/26 08:23:39;;;;;;;1.30;0.82;;;19.90;54.30;;;;;;4977095;28;20027;-68
2023/12/26 08:26:08;;;;;;;1.88;0.98;;;19.90;54.40;;;;;;4979343;28;20766;-67
2023/12/26 08:28:34;;;;;;;1.75;0.77;;;19.90;54.40;;;;;;4979230;28;20494;-67
2023/12/26 08:30:59;;;;;;;2.17;0.90;;;19.90;54.40;;;;;;4980805;28;20034;-68
2023/12/26 08:33:25;;;;;;;1.25;0.77;;;19.90;54.40;;;;;;4981583;28;20059;-68
2023/12/26 08:35:51;;;;;;;1.40;0.70;;;19.90;54.40;;;;;;4982359;28;20080;-67
2023/12/26 08:38:17;;;;;;;1.67;0.80;;;19.90;54.40;;;;;;4981133;28;20023;-67
2023/12/26 08:40:42;;;;;;;2.75;0.73;;;19.90;54.40;;;;;;4982438;28;20029;-67
2023/12/26 08:43:08;;;;;;;1.52;0.77;;;19.90;54.40;;;;;;4983749;28;20034;-67
2023/12/26 08:45:34;;;;;;;1.42;0.75;;;19.90;54.40;;;;;;4981225;28;20027;-67
2023/12/26 08:48:00;;;;;;;1.80;1.00;;;19.80;54.40;;;;;;4984116;28;20395;-68
2023/12/26 08:50:26;;;;;;;3.28;1.30;;;19.90;54.40;;;;;;4983232;28;20035;-67
2023/12/26 08:52:51;;;;;;;2.22;0.80;;;19.90;54.50;;;;;;4982995;28;20113;-68
2023/12/26 08:55:17;;;;;;;1.50;0.73;;;19.90;54.40;;;;;;4983562;28;20034;-67
2023/12/26 08:57:43;;;;;;;0.85;0.70;;;19.90;54.50;;;;;;4982222;28;20027;-67
2023/12/26 09:00:13;;;;;;;1.40;0.90;;;19.80;54.50;;;;;;4982644;28;20037;-64
2023/12/26 09:02:41;;;;;;;1.40;0.73;;;19.90;54.50;;;;;;4983006;28;20026;-64
2023/12/26 09:05:07;;;;;;;1.40;0.75;;;19.80;54.50;;;;;;4982826;28;20035;-64
2023/12/26 09:07:32;;;;;;;2.03;0.90;;;19.80;54.50;;;;;;4982406;28;20507;-64
2023/12/26 09:09:58;;;;;;;1.35;0.73;;;19.80;54.50;;;;;;4981937;28;20025;-67
2023/12/26 09:12:24;;;;;;;1.70;0.90;;;19.80;54.50;;;;;;4980769;28;20421;-67
2023/12/26 09:14:49;;;;;;;1.10;0.70;;;19.80;54.50;;;;;;4982648;28;20037;-67
2023/12/26 09:17:15;;;;;;;1.35;0.90;;;19.80;54.50;;;;;;4982261;28;20023;-67
2023/12/26 09:19:41;;;;;;;2.63;0.90;;;19.80;54.50;;;;;;4981488;28;20110;-67
2023/12/26 09:22:06;;;;;;;1.90;1.10;;;19.80;54.50;;;;;;4980897;28;20031;-67
2023/12/26 09:24:32;;;;;;;1.58;0.80;;;19.80;54.50;;;;;;4981514;28;20031;-67
2023/12/26 09:26:58;;;;;;;1.63;0.80;;;19.80;54.60;;;;;;4982303;28;20498;-66
2023/12/26 09:29:24;;;;;;;1.48;0.73;;;19.80;54.50;;;;;;4982909;28;20022;-67
2023/12/26 09:31:49;;;;;;;1.15;0.65;;;19.80;54.50;;;;;;4995888;28;20487;-68
2023/12/26 09:34:15;;;;;;;1.38;0.80;;;19.80;54.50;;;;;;4980808;28;20114;-68
2023/12/26 09:36:40;;;;;;;1.30;0.80;;;19.80;54.60;;;;;;4982552;28;20606;-67
2023/12/26 09:39:06;;;;;;;2.05;0.80;;;19.80;54.50;;;;;;4984126;28;20034;-69
2023/12/26 09:41:32;;;;;;;1.25;0.80;;;19.80;54.60;;;;;;4980973;28;20034;-67
2023/12/26 09:43:57;;;;;;;1.65;0.80;;;19.80;54.60;;;;;;4983788;28;20390;-69
2023/12/26 09:46:23;;;;;;;1.20;0.80;;;19.80;54.60;;;;;;4982320;28;20034;-69
2023/12/26 09:48:49;;;;;;;1.75;0.90;;;19.80;54.70;;;;;;4982248;28;20129;-68
2023/12/26 09:51:21;;;;;;;1.80;0.82;;;19.80;54.60;;;;;;4981647;28;20038;-69
2023/12/26 09:53:55;;;;;;;2.08;0.90;;;19.80;54.70;;;;;;4983673;28;20035;-67
2023/12/26 09:56:21;;;;;;;1.60;0.88;;;19.80;54.60;;;;;;4981097;28;20497;-68
2023/12/26 09:58:48;;;;;;;2.05;0.90;;;19.80;54.70;;;;;;4982866;28;20053;-69
2023/12/26 10:01:14;;;;;;;3.10;0.90;;;19.80;54.60;;;;;;4981601;28;20378;-69
2023/12/26 10:03:41;;;;;;;1.77;0.90;;;19.80;54.70;;;;;;4981043;28;20037;-68
2023/12/26 10:06:08;;;;;;;1.35;0.80;;;19.80;54.70;;;;;;4980861;28;20415;-68
2023/12/26 10:08:33;;;;;;;1.48;0.85;;;19.70;54.60;;;;;;4995323;28;20502;-68
2023/12/26 10:10:59;;;;;;;1.40;0.90;;;19.70;54.60;;;;;;4981796;28;20027;-67
2023/12/26 10:13:25;;;;;;;2.00;0.90;;;19.70;54.60;;;;;;4979911;28;20454;-66
2023/12/26 10:15:51;;;;;;;1.65;0.90;;;19.70;54.60;;;;;;4983184;28;20558;-66
2023/12/26 10:18:17;;;;;;;1.80;0.80;;;19.70;54.60;;;;;;4981291;28;20040;-67
2023/12/26 10:20:42;;;;;;;1.63;0.90;;;19.70;54.60;;;;;;4980736;28;20526;-66
2023/12/26 10:23:08;;;;;;;2.15;0.80;;;19.70;54.60;;;;;;4979937;28;20076;-67
2023/12/26 10:25:34;;;;;;;3.00;0.90;;;19.70;54.60;;;;;;4982109;28;20019;-66
2023/12/26 10:28:00;;;;;;;1.27;0.70;;;19.80;54.70;;;;;;4980322;28;20064;-66
2023/12/26 10:30:26;;;;;;;1.42;0.80;;;19.70;54.60;;;;;;4983706;28;20034;-66
2023/12/26 10:32:59;;;;;;;1.88;0.88;;;19.70;54.60;;;;;;4981626;28;20061;-66
2023/12/26 10:35:24;;;;;;;1.80;0.85;;;19.70;54.60;;;;;;4980946;28;20042;-67
2023/12/26 10:37:53;;;;;;;1.58;0.82;;;19.70;54.60;;;;;;4981883;28;20026;-66
2023/12/26 10:40:18;;;;;;;1.60;0.90;;;19.70;55.10;;;;;;4980994;28;20113;-66
2023/12/26 10:42:49;;;;;;;1.40;0.80;;;19.70;54.60;;;;;;4978965;28;20101;-66
2023/12/26 10:45:18;;;;;;;1.70;0.70;;;19.70;54.60;;;;;;4979555;28;20019;-66
2023/12/26 10:47:46;;;;;;;1.55;0.82;;;19.70;54.60;;;;;;4981159;28;20039;-66
2023/12/26 10:50:12;;;;;;;2.25;0.98;;;19.70;54.60;;;;;;4980237;28;20041;-66
2023/12/26 10:52:42;;;;;;;1.23;0.80;;;19.70;54.60;;;;;;4982481;28;20076;-65
2023/12/26 10:55:08;;;;;;;1.50;0.95;;;19.70;54.60;;;;;;4981485;28;20933;-66
2023/12/26 10:57:35;;;;;;;1.63;0.90;;;19.70;54.60;;;;;;4979758;28;20495;-66
2023/12/26 11:00:02;;;;;;;1.52;0.80;;;19.70;54.60;;;;;;4980757;28;20117;-66
2023/12/26 11:02:28;;;;;;;1.67;1.00;;;19.70;54.60;;;;;;4980234;28;20383;-66
2023/12/26 11:04:54;;;;;;;1.58;0.82;;;19.70;54.70;;;;;;4981377;28;20030;-66
2023/12/26 11:07:21;;;;;;;1.73;0.70;;;19.70;54.60;;;;;;4982324;28;20065;-66
2023/12/26 11:09:47;;;;;;;2.45;1.05;;;19.70;54.70;;;;;;4981163;28;20046;-65
2023/12/26 11:12:12;;;;;;;1.23;0.75;;;19.70;54.70;;;;;;4980530;28;20106;-65
2023/12/26 11:14:39;;;;;;;1.33;0.80;;;19.70;54.70;;;;;;4978839;28;20125;-66
2023/12/26 11:17:06;;;;;;;1.20;0.77;;;19.70;54.70;;;;;;4980719;28;20014;-65
2023/12/26 11:19:31;;;;;;;1.17;0.80;;;19.70;54.70;;;;;;4980249;28;20472;-68
2023/12/26 11:21:57;;;;;;;1.85;0.85;;;19.70;54.70;;;;;;4979102;28;20034;-69
2023/12/26 11:24:23;;;;;;;1.50;0.88;;;19.70;54.70;;;;;;4979735;28;20034;-70
2023/12/26 11:26:49;;;;;;;1.58;0.90;;;19.70;54.70;;;;;;4980954;28;20038;-69
2023/12/26 11:29:15;;;;;;;2.35;0.85;;;19.70;54.70;;;;;;4979689;28;20390;-69
2023/12/26 11:31:41;;;;;;;1.83;0.90;;;19.70;54.70;;;;;;4982540;28;20026;-67
2023/12/26 11:34:12;;;;;;;1.63;1.00;;;19.70;54.80;;;;;;4979343;28;20034;-66
2023/12/26 11:36:42;;;;;;;2.25;0.90;;;19.70;54.80;;;;;;4981236;28;20441;-67
2023/12/26 11:39:08;;;;;;;1.98;0.98;;;19.70;55.30;;;;;;4979892;28;20034;-67
2023/12/26 11:41:34;;;;;;;1.90;0.95;;;19.70;54.80;;;;;;4979126;28;20349;-66
2023/12/26 11:43:59;;;;;;;2.03;1.10;;;19.70;54.80;;;;;;4978963;28;20054;-67
2023/12/26 11:46:25;;;;;;;1.83;0.98;;;19.70;55.10;;;;;;4978296;28;20101;-66
2023/12/26 11:48:51;;;;;;;1.65;1.10;;;19.70;55.20;;;;;;4978145;28;20030;-66
2023/12/26 11:51:17;;;;;;;2.10;0.85;;;19.80;55.30;;;;;;4980365;28;20050;-66
2023/12/26 11:53:42;;;;;;;1.83;1.00;;;19.90;55.80;;;;;;4980846;28;20035;-67
2023/12/26 11:56:08;;;;;;;1.88;1.00;;;20.00;55.20;;;;;;4980770;28;20034;-66
2023/12/26 11:58:34;;;;;;;2.95;1.13;;;20.10;55.10;;;;;;4978560;28;20037;-66
2023/12/26 12:01:00;;;;;;;4.18;1.40;;;20.20;54.90;;;;;;4981403;28;20433;-66
2023/12/26 12:03:25;;;;;;;2.30;1.20;;;20.20;54.80;;;;;;4979942;28;20084;-67
2023/12/26 12:06:14;;;;;;;2.90;1.20;;;20.30;54.70;;;;;;4978270;28;20106;-67
2023/12/26 12:09:05;;;;;;;3.10;1.37;;;20.40;54.60;;;;;;4979883;28;20034;-66
2023/12/26 12:11:32;;;;;;;2.90;1.30;;;20.50;54.60;;;;;;4980043;28;20057;-66
2023/12/26 12:13:59;;;;;;;3.95;1.70;;;20.60;54.60;;;;;;4979149;28;20137;-67
2023/12/26 12:16:25;;;;;;;3.67;1.67;;;20.60;54.20;;;;;;4977948;28;20151;-67
2023/12/26 12:19:00;;;;;;;4.45;1.85;;;20.70;54.20;;;;;;4978049;28;20522;-66
2023/12/26 12:21:38;;;;;;;4.30;1.90;;;20.60;54.00;;;;;;4979530;28;20442;-67
2023/12/26 12:24:05;;;;;;;4.22;1.90;;;20.70;54.00;;;;;;4994062;28;20035;-67
2023/12/26 12:27:01;;;;;;;3.90;1.92;;;20.70;54.00;;;;;;4981179;28;20197;-66
2023/12/26 12:29:28;;;;;;;4.50;2.13;;;20.70;53.90;;;;;;4978228;28;20039;-66
2023/12/26 12:32:19;;;;;;;3.65;1.80;;;20.70;53.80;;;;;;4980066;28;20858;-68
2023/12/26 12:35:15;;;;;;;3.90;1.85;;;20.70;53.80;;;;;;4978272;28;20141;-67
2023/12/26 12:37:41;;;;;;;5.10;2.10;;;20.70;53.80;;;;;;4978171;28;20030;-66
2023/12/26 12:40:09;;;;;;;4.88;1.75;;;20.70;53.70;;;;;;4978584;28;20131;-66
2023/12/26 12:42:36;;;;;;;4.90;2.00;;;20.70;53.60;;;;;;4977547;28;20382;-66
2023/12/26 12:45:03;;;;;;;3.97;1.80;;;20.70;53.60;;;;;;4978914;28;20546;-65